Time;durP1;ratioP1;P1;durP2;ratioP2;P2;SDS_P1;SDS_P2;PMS_P1;PMS_P2;Temp;Humidity;BMP_temperature;BMP_pressure;BME280_temperature;BME280_humidity;BME280_pressure;Samples;Min_cycle;Max_cycle;Signal;HPM_P1;HPM_P2
2023/01/07 00:02:09;;;;;;;;;;;12.40;99.90;;;;;;5038054;28;19963;-74
2023/01/07 00:04:34;;;;;;;;;;;12.40;99.90;;;;;;5035120;28;19921;-73
2023/01/07 00:07:00;;;;;;;;;;;12.30;99.90;;;;;;5041775;28;19974;-74
2023/01/07 00:09:25;;;;;;;;;;;12.20;99.90;;;;;;5032600;28;19964;-73
2023/01/07 00:11:51;;;;;;;;;;;12.30;99.90;;;;;;5041133;28;19943;-74
2023/01/07 00:14:16;;;;;;;;;;;12.20;99.90;;;;;;5041794;28;20056;-74
2023/01/07 00:16:42;;;;;;;;;;;12.30;99.90;;;;;;5046911;28;20371;-75
2023/01/07 00:19:10;;;;;;;;;;;12.20;99.90;;;;;;5040518;28;19910;-75
2023/01/07 00:21:36;;;;;;;;;;;12.20;99.90;;;;;;5055072;28;19925;-77
2023/01/07 00:24:03;;;;;;;;;;;12.20;99.90;;;;;;5057502;28;19915;-75
2023/01/07 00:26:29;;;;;;;;;;;12.20;99.90;;;;;;5056266;28;19913;-72
2023/01/07 00:28:56;;;;;;;;;;;12.20;99.90;;;;;;5045813;28;19991;-74
2023/01/07 00:31:22;;;;;;;;;;;12.10;99.90;;;;;;5045684;28;19916;-73
2023/01/07 00:34:09;;;;;;;;;;;12.10;99.90;;;;;;5044280;28;19980;-74
2023/01/07 00:36:38;;;;;;;;;;;12.00;99.90;;;;;;5045757;28;20286;-73
2023/01/07 00:39:06;;;;;;;;;;;12.00;99.90;;;;;;5057743;28;19912;-74
2023/01/07 00:41:31;;;;;;;;;;;12.10;99.90;;;;;;5045585;28;19915;-74
2023/01/07 00:43:57;;;;;;;;;;;12.10;99.90;;;;;;5040576;28;19999;-72
2023/01/07 00:46:22;;;;;;;;;;;12.00;99.90;;;;;;5038679;28;20008;-74
2023/01/07 00:48:48;;;;;;;;;;;12.00;99.90;;;;;;5036104;28;21494;-74
2023/01/07 00:51:14;;;;;;;;;;;12.00;99.90;;;;;;5034492;28;19920;-74
2023/01/07 00:53:40;;;;;;;;;;;12.00;99.90;;;;;;5047635;28;20007;-73
2023/01/07 00:56:05;;;;;;;;;;;12.00;99.90;;;;;;5044240;28;19952;-76
2023/01/07 00:58:31;;;;;;;;;;;12.00;99.90;;;;;;5048143;28;19954;-74
2023/01/07 01:00:57;;;;;;;;;;;12.00;99.90;;;;;;5040116;28;19915;-74
2023/01/07 01:03:23;;;;;;;;;;;12.00;99.90;;;;;;5041118;28;19913;-74
2023/01/07 01:05:48;;;;;;;;;;;11.90;99.90;;;;;;5048589;28;19936;-74
2023/01/07 01:08:14;;;;;;;;;;;12.00;99.90;;;;;;5036241;28;19912;-72
2023/01/07 01:10:39;;;;;;;;;;;12.00;99.90;;;;;;5037859;28;20382;-73
2023/01/07 01:13:05;;;;;;;;;;;12.00;99.90;;;;;;5037673;28;19925;-76
2023/01/07 01:15:30;;;;;;;;;;;12.00;99.90;;;;;;5042831;28;19909;-74
2023/01/07 01:17:56;;;;;;;;;;;12.00;99.90;;;;;;5047416;28;19909;-75
2023/01/07 01:20:21;;;;;;;;;;;12.00;99.90;;;;;;5040496;28;19909;-76
2023/01/07 01:22:47;;;;;;;;;;;12.00;99.90;;;;;;5041217;28;19909;-74
2023/01/07 01:25:12;;;;;;;;;;;12.00;99.90;;;;;;5047323;28;19917;-73
2023/01/07 01:27:38;;;;;;;;;;;12.00;99.90;;;;;;5048354;28;20435;-74
2023/01/07 01:30:04;;;;;;;;;;;12.00;99.90;;;;;;5044576;28;19919;-74
2023/01/07 01:32:30;;;;;;;;;;;12.00;99.90;;;;;;5038442;28;20309;-75
2023/01/07 01:34:55;;;;;;;;;;;12.00;99.90;;;;;;5046093;28;19913;-73
2023/01/07 01:37:21;;;;;;;;;;;11.90;99.90;;;;;;5036719;28;20145;-74
2023/01/07 01:39:46;;;;;;;;;;;12.00;99.90;;;;;;5039393;28;19920;-73
2023/01/07 01:42:13;;;;;;;;;;;11.90;99.90;;;;;;5048123;28;19927;-74
2023/01/07 01:44:47;;;;;;;;;;;12.00;99.90;;;;;;5041075;28;19920;-75
2023/01/07 01:47:21;;;;;;;;;;;11.90;99.90;;;;;;5033460;28;20000;-74
2023/01/07 01:49:50;;;;;;;;;;;11.80;99.90;;;;;;5042633;28;19912;-72
2023/01/07 01:52:16;;;;;;;;;;;11.80;99.90;;;;;;5040248;28;19917;-72
2023/01/07 01:54:48;;;;;;;;;;;11.70;99.90;;;;;;5047776;28;19912;-74
2023/01/07 01:57:15;;;;;;;;;;;11.70;99.90;;;;;;5044763;28;20001;-74
2023/01/07 01:59:42;;;;;;;;;;;11.70;99.90;;;;;;5042642;28;19912;-74
2023/01/07 02:02:08;;;;;;;;;;;11.70;99.90;;;;;;5036386;28;19913;-73
2023/01/07 02:04:34;;;;;;;;;;;11.70;99.90;;;;;;5038180;28;19920;-76
2023/01/07 02:07:03;;;;;;;;;;;11.70;99.90;;;;;;5031741;28;19909;-74
2023/01/07 02:09:29;;;;;;;;;;;11.70;99.90;;;;;;5045677;28;19912;-72
2023/01/07 02:12:12;;;;;;;;;;;11.70;99.90;;;;;;5035756;28;19928;-75
2023/01/07 02:14:57;;;;;;;;;;;11.70;99.90;;;;;;5046104;28;19916;-74
2023/01/07 02:17:28;;;;;;;;;;;11.70;99.90;;;;;;5045459;28;19986;-74
2023/01/07 02:20:12;;;;;;;;;;;11.70;99.90;;;;;;5038360;28;19963;-73
2023/01/07 02:22:43;;;;;;;;;;;11.70;99.90;;;;;;5039558;28;19913;-76
2023/01/07 02:25:14;;;;;;;;;;;11.70;99.90;;;;;;5041604;28;20001;-75
2023/01/07 02:27:57;;;;;;;;;;;11.70;99.90;;;;;;5049501;28;19905;-73
2023/01/07 02:30:22;;;;;;;;;;;11.60;99.90;;;;;;5063668;28;19913;-74
2023/01/07 02:33:02;;;;;;;;;;;11.50;99.90;;;;;;5055195;28;19932;-74
2023/01/07 02:35:30;;;;;;;;;;;11.50;99.90;;;;;;5054313;28;19911;-74
2023/01/07 02:37:56;;;;;;;;;;;11.40;99.90;;;;;;5063145;28;19897;-74
2023/01/07 02:40:24;;;;;;;;;;;11.40;99.90;;;;;;5057159;28;19920;-74
2023/01/07 02:43:00;;;;;;;;;;;11.40;99.90;;;;;;5058969;28;19912;-75
2023/01/07 02:45:28;;;;;;;;;;;11.40;99.90;;;;;;5062341;28;19916;-76
2023/01/07 02:47:55;;;;;;;;;;;11.30;99.90;;;;;;5062901;28;19924;-77
2023/01/07 02:50:21;;;;;;;;;;;11.30;99.90;;;;;;5053221;28;19909;-72
2023/01/07 02:52:46;;;;;;;;;;;11.30;99.90;;;;;;5057279;28;19916;-76
2023/01/07 02:55:20;;;;;;;;;;;11.20;99.90;;;;;;5050910;28;19964;-71
2023/01/07 02:58:04;;;;;;;;;;;11.30;99.90;;;;;;5049052;28;19913;-74
2023/01/07 03:00:29;;;;;;;;;;;11.30;99.90;;;;;;5052653;28;19982;-75
2023/01/07 03:03:13;;;;;;;;;;;11.20;99.90;;;;;;5050726;28;20378;-73
2023/01/07 03:05:57;;;;;;;;;;;11.20;99.90;;;;;;5054705;28;19921;-77
2023/01/07 03:08:35;;;;;;;;;;;11.20;99.90;;;;;;5057496;28;19927;-75
2023/01/07 03:11:02;;;;;;;;;;;11.20;99.90;;;;;;5045228;28;19909;-75
2023/01/07 03:13:41;;;;;;;;;;;11.20;99.90;;;;;;5043992;28;19920;-72
2023/01/07 03:16:18;;;;;;;;;;;11.10;99.90;;;;;;5042506;28;19913;-74
2023/01/07 03:18:47;;;;;;;;;;;11.10;99.90;;;;;;5042119;28;19914;-73
2023/01/07 03:21:14;;;;;;;;;;;11.10;99.90;;;;;;5044990;28;19982;-74
2023/01/07 03:23:42;;;;;;;;;;;11.10;99.90;;;;;;5041108;28;19966;-74
2023/01/07 03:26:09;;;;;;;;;;;11.10;99.90;;;;;;5038763;28;19944;-74
2023/01/07 03:28:39;;;;;;;;;;;11.00;99.90;;;;;;5043080;28;19921;-75
2023/01/07 03:31:06;;;;;;;;;;;11.00;99.90;;;;;;5033096;28;20012;-75
2023/01/07 03:33:38;;;;;;;;;;;11.10;99.90;;;;;;5043106;28;19913;-72
2023/01/07 03:36:05;;;;;;;;;;;11.10;99.90;;;;;;5042625;28;20004;-74
2023/01/07 03:38:32;;;;;;;;;;;11.10;99.90;;;;;;5039742;28;19924;-75
2023/01/07 03:40:58;;;;;;;;;;;11.10;99.90;;;;;;5033042;28;19955;-75
2023/01/07 03:43:23;;;;;;;;;;;11.10;99.90;;;;;;5033614;28;19912;-76
2023/01/07 03:45:50;;;;;;;;;;;11.20;99.90;;;;;;5047643;28;19920;-74
2023/01/07 03:48:16;;;;;;;;;;;11.20;99.90;;;;;;5056222;28;19923;-74
2023/01/07 03:50:41;;;;;;;;;;;11.20;99.90;;;;;;5037464;28;19917;-74
2023/01/07 03:53:07;;;;;;;;;;;11.20;99.90;;;;;;5029678;28;19913;-70
2023/01/07 03:55:32;;;;;;;;;;;11.20;99.90;;;;;;5046545;28;19919;-73
2023/01/07 03:57:58;;;;;;;;;;;11.30;99.90;;;;;;5047386;28;20300;-74
2023/01/07 04:00:24;;;;;;;;;;;11.30;99.90;;;;;;5040900;28;19920;-74
2023/01/07 04:02:49;;;;;;;;;;;11.40;99.90;;;;;;5040982;28;19987;-74
2023/01/07 04:05:15;;;;;;;;;;;11.30;99.90;;;;;;5040196;28;19927;-73
2023/01/07 04:07:40;;;;;;;;;;;11.30;99.90;;;;;;5045909;28;20019;-74
2023/01/07 04:10:06;;;;;;;;;;;11.30;99.90;;;;;;5042691;28;20002;-74
2023/01/07 04:12:32;;;;;;;;;;;11.30;99.90;;;;;;5047579;28;19913;-73
2023/01/07 04:14:57;;;;;;;;;;;11.30;99.90;;;;;;5037810;28;19909;-75
2023/01/07 04:17:23;;;;;;;;;;;11.30;99.90;;;;;;5035811;28;19976;-74
2023/01/07 04:19:48;;;;;;;;;;;11.30;99.90;;;;;;5044705;28;19921;-74
2023/01/07 04:22:14;;;;;;;;;;;11.30;99.90;;;;;;5037255;28;20160;-75
2023/01/07 04:24:39;;;;;;;;;;;11.30;99.90;;;;;;5036953;28;19908;-73
2023/01/07 04:27:05;;;;;;;;;;;11.30;99.90;;;;;;5040857;28;20546;-74
2023/01/07 04:29:30;;;;;;;;;;;11.30;99.90;;;;;;5044298;28;19913;-75
2023/01/07 04:31:55;;;;;;;;;;;11.20;99.90;;;;;;5047551;28;20383;-75
2023/01/07 04:34:21;;;;;;;;;;;11.20;99.90;;;;;;5049773;28;20279;-73
2023/01/07 04:36:46;;;;;;;;;;;11.30;99.90;;;;;;5040886;28;19920;-72
2023/01/07 04:39:12;;;;;;;;;;;11.30;99.90;;;;;;5053633;28;19920;-74
2023/01/07 04:41:38;;;;;;;;;;;11.30;99.90;;;;;;5055959;28;19913;-75
2023/01/07 04:44:03;;;;;;;;;;;11.30;99.90;;;;;;5053366;28;19913;-74
2023/01/07 04:46:29;;;;;;;;;;;11.20;99.90;;;;;;5064609;28;19908;-76
2023/01/07 04:48:54;;;;;;;;;;;11.20;99.90;;;;;;5073202;28;19924;-74
2023/01/07 04:51:20;;;;;;;;;;;11.20;99.90;;;;;;5065707;28;19925;-76
2023/01/07 04:53:46;;;;;;;;;;;11.30;99.90;;;;;;5068333;28;19893;-75
2023/01/07 04:56:11;;;;;;;;;;;11.40;99.90;;;;;;5073068;28;19909;-75
2023/01/07 04:58:37;;;;;;;;;;;11.40;99.90;;;;;;5060979;28;19905;-74
2023/01/07 05:01:03;;;;;;;;;;;11.30;99.90;;;;;;5052526;28;20325;-75
2023/01/07 05:03:28;;;;;;;;;;;11.30;99.90;;;;;;5057743;28;19940;-73
2023/01/07 05:05:54;;;;;;;;;;;11.30;99.90;;;;;;5056719;28;19909;-74
2023/01/07 05:08:20;;;;;;;;;;;11.20;99.90;;;;;;5052161;28;19909;-76
2023/01/07 05:10:47;;;;;;;;;;;11.20;99.90;;;;;;5056798;28;19913;-74
2023/01/07 05:13:16;;;;;;;;;;;11.20;99.90;;;;;;5060039;28;19971;-77
2023/01/07 05:15:42;;;;;;;;;;;11.20;99.90;;;;;;5062230;28;19920;-76
2023/01/07 05:18:07;;;;;;;;;;;11.10;99.90;;;;;;5061216;28;19909;-75
2023/01/07 05:20:32;;;;;;;;;;;11.10;99.90;;;;;;5058469;28;19936;-75
2023/01/07 05:22:58;;;;;;;;;;;11.10;99.90;;;;;;5060344;28;19908;-76
2023/01/07 05:25:24;;;;;;;;;;;11.20;99.90;;;;;;5059182;28;19916;-72
2023/01/07 05:27:49;;;;;;;;;;;11.20;99.90;;;;;;5050389;28;19913;-75
2023/01/07 05:30:14;;;;;;;;;;;11.10;99.90;;;;;;5054447;28;20014;-75
2023/01/07 05:32:40;;;;;;;;;;;11.10;99.90;;;;;;5058773;28;19985;-76
2023/01/07 05:35:06;;;;;;;;;;;11.10;99.90;;;;;;5053668;28;19920;-75
2023/01/07 05:37:31;;;;;;;;;;;11.20;99.90;;;;;;5053548;28;19909;-75
2023/01/07 05:39:57;;;;;;;;;;;11.10;99.90;;;;;;5041384;28;19914;-74
2023/01/07 05:42:22;;;;;;;;;;;11.20;99.90;;;;;;5043266;28;19909;-75
2023/01/07 05:44:47;;;;;;;;;;;11.10;99.90;;;;;;5048960;28;19925;-73
2023/01/07 05:47:13;;;;;;;;;;;11.20;99.90;;;;;;5044987;28;19917;-75
2023/01/07 05:49:38;;;;;;;;;;;11.10;99.90;;;;;;5053625;28;20005;-75
2023/01/07 05:52:04;;;;;;;;;;;11.10;99.90;;;;;;5054219;28;19922;-76
2023/01/07 05:54:29;;;;;;;;;;;11.00;99.90;;;;;;5046847;28;19988;-76
2023/01/07 05:56:55;;;;;;;;;;;11.00;99.90;;;;;;5062368;28;20397;-75
2023/01/07 05:59:20;;;;;;;;;;;11.00;99.90;;;;;;5058012;28;19909;-75
2023/01/07 06:01:45;;;;;;;;;;;10.90;99.90;;;;;;5059563;28;19909;-74
2023/01/07 06:04:11;;;;;;;;;;;10.90;99.90;;;;;;5051560;28;20003;-74
2023/01/07 06:06:36;;;;;;;;;;;10.90;99.90;;;;;;5041854;28;19913;-75
2023/01/07 06:09:02;;;;;;;;;;;10.90;99.90;;;;;;5050108;28;19909;-77
2023/01/07 06:11:28;;;;;;;;;;;10.90;99.90;;;;;;5059570;28;19961;-76
2023/01/07 06:13:53;;;;;;;;;;;10.80;99.90;;;;;;5054676;28;19908;-76
2023/01/07 06:16:18;;;;;;;;;;;10.80;99.90;;;;;;5058689;28;19959;-74
2023/01/07 06:18:44;;;;;;;;;;;10.80;99.90;;;;;;5040486;28;19916;-74
2023/01/07 06:21:09;;;;;;;;;;;10.80;99.90;;;;;;5042254;28;19913;-74
2023/01/07 06:23:36;;;;;;;;;;;10.80;99.90;;;;;;5042626;28;20566;-73
2023/01/07 06:26:01;;;;;;;;;;;10.70;99.90;;;;;;5045183;28;19920;-74
2023/01/07 06:28:26;;;;;;;;;;;10.80;99.90;;;;;;5045949;28;20338;-74
2023/01/07 06:30:52;;;;;;;;;;;10.80;99.90;;;;;;5033707;28;19917;-74
2023/01/07 06:33:17;;;;;;;;;;;10.80;99.90;;;;;;5032551;28;19924;-76
2023/01/07 06:35:43;;;;;;;;;;;10.90;99.90;;;;;;5034238;28;20585;-74
2023/01/07 06:38:09;;;;;;;;;;;10.90;99.90;;;;;;5045305;28;19921;-71
2023/01/07 06:40:34;;;;;;;;;;;10.80;99.90;;;;;;5038466;28;19920;-73
2023/01/07 06:43:00;;;;;;;;;;;10.80;99.90;;;;;;5034480;28;20004;-73
2023/01/07 06:45:25;;;;;;;;;;;10.80;99.90;;;;;;5040214;28;20670;-74
2023/01/07 06:47:50;;;;;;;;;;;10.80;99.90;;;;;;5043852;28;19919;-73
2023/01/07 06:50:16;;;;;;;;;;;10.80;99.90;;;;;;5044389;28;20364;-74
2023/01/07 06:52:42;;;;;;;;;;;10.90;99.90;;;;;;5043611;28;20012;-78
2023/01/07 06:55:07;;;;;;;;;;;10.80;99.90;;;;;;5045467;28;19909;-75
2023/01/07 06:57:33;;;;;;;;;;;10.80;99.90;;;;;;5039201;28;19916;-75
2023/01/07 06:59:58;;;;;;;;;;;10.80;99.90;;;;;;5037227;28;20391;-76
2023/01/07 07:02:25;;;;;;;;;;;10.80;99.90;;;;;;5034243;28;19917;-77
2023/01/07 07:04:51;;;;;;;;;;;10.80;99.90;;;;;;5044815;28;20523;-74
2023/01/07 07:07:16;;;;;;;;;;;10.70;99.90;;;;;;5043739;28;19913;-75
2023/01/07 07:09:42;;;;;;;;;;;10.70;99.90;;;;;;5045053;28;19920;-74
2023/01/07 07:12:07;;;;;;;;;;;10.70;99.90;;;;;;5044395;28;19912;-74
2023/01/07 07:14:33;;;;;;;;;;;10.70;99.90;;;;;;5047690;28;19913;-74
2023/01/07 07:16:59;;;;;;;;;;;10.70;99.90;;;;;;5052111;28;19916;-75
2023/01/07 07:19:24;;;;;;;;;;;10.70;99.90;;;;;;5045779;28;19976;-75
2023/01/07 07:21:50;;;;;;;;;;;10.70;99.90;;;;;;5044497;28;20017;-77
2023/01/07 07:24:15;;;;;;;;;;;10.70;99.90;;;;;;5034536;28;19912;-74
2023/01/07 07:26:40;;;;;;;;;;;10.70;99.90;;;;;;5034971;28;19913;-74
2023/01/07 07:29:07;;;;;;;;;;;10.60;99.90;;;;;;5034889;28;19944;-72
2023/01/07 07:31:33;;;;;;;;;;;10.60;99.90;;;;;;5044199;28;19913;-75
2023/01/07 07:33:58;;;;;;;;;;;10.60;99.90;;;;;;5039198;28;20347;-74
2023/01/07 07:36:24;;;;;;;;;;;10.60;99.90;;;;;;5046407;28;19913;-74
2023/01/07 07:38:49;;;;;;;;;;;10.60;99.90;;;;;;5036192;28;19913;-73
2023/01/07 07:41:14;;;;;;;;;;;10.50;99.90;;;;;;5038071;28;20657;-75
2023/01/07 07:43:40;;;;;;;;;;;10.60;99.90;;;;;;5041240;28;19927;-74
2023/01/07 07:46:05;;;;;;;;;;;10.50;99.90;;;;;;5036295;28;19916;-76
2023/01/07 07:48:31;;;;;;;;;;;10.50;99.90;;;;;;5043229;28;19912;-75
2023/01/07 07:50:56;;;;;;;;;;;10.50;99.90;;;;;;5042242;28;19935;-72
2023/01/07 07:53:22;;;;;;;;;;;10.40;99.90;;;;;;5043545;28;19920;-74
2023/01/07 07:55:47;;;;;;;;;;;10.40;99.90;;;;;;5038072;28;19916;-73
2023/01/07 07:58:13;;;;;;;;;;;10.50;99.90;;;;;;5040189;28;19913;-74
2023/01/07 08:00:38;;;;;;;;;;;10.50;99.90;;;;;;5042674;28;19924;-74
2023/01/07 08:03:04;;;;;;;;;;;10.40;99.90;;;;;;5041947;28;20074;-75
2023/01/07 08:05:29;;;;;;;;;;;10.50;99.90;;;;;;5047131;28;19917;-71
2023/01/07 08:07:55;;;;;;;;;;;10.50;99.90;;;;;;5046231;28;20007;-75
2023/01/07 08:10:21;;;;;;;;;;;10.40;99.90;;;;;;5045269;28;19916;-73
2023/01/07 08:12:46;;;;;;;;;;;10.40;99.90;;;;;;5043731;28;20582;-74
2023/01/07 08:15:12;;;;;;;;;;;10.50;99.90;;;;;;5045516;28;20440;-75
2023/01/07 08:17:37;;;;;;;;;;;10.50;99.90;;;;;;5043266;28;19917;-74
2023/01/07 08:20:03;;;;;;;;;;;10.40;99.90;;;;;;5045669;28;19936;-73
2023/01/07 08:22:29;;;;;;;;;;;10.50;99.90;;;;;;5045015;28;20370;-74
2023/01/07 08:24:54;;;;;;;;;;;10.50;99.90;;;;;;5044922;28;19917;-74
2023/01/07 08:27:20;;;;;;;;;;;10.50;99.90;;;;;;5045495;28;20685;-73
2023/01/07 08:29:45;;;;;;;;;;;10.50;99.90;;;;;;5043363;28;20376;-75
2023/01/07 08:32:11;;;;;;;;;;;10.50;99.90;;;;;;5044874;28;19971;-74
2023/01/07 08:34:36;;;;;;;;;;;10.50;99.90;;;;;;5045925;28;19913;-74
2023/01/07 08:37:02;;;;;;;;;;;10.40;99.90;;;;;;5044883;28;19921;-73
2023/01/07 08:39:27;;;;;;;;;;;10.50;99.90;;;;;;5046293;28;19917;-72
2023/01/07 08:41:53;;;;;;;;;;;10.40;99.90;;;;;;5044130;28;19920;-73
2023/01/07 08:44:18;;;;;;;;;;;10.40;99.90;;;;;;5044747;28;20028;-74
2023/01/07 08:46:44;;;;;;;;;;;10.50;99.90;;;;;;5042411;28;19920;-74
2023/01/07 08:49:09;;;;;;;;;;;10.50;99.90;;;;;;5042382;28;19965;-73
2023/01/07 08:51:35;;;;;;;;;;;10.40;99.90;;;;;;5045551;28;19954;-73
2023/01/07 08:54:01;;;;;;;;;;;10.40;99.90;;;;;;5044457;28;20039;-74
2023/01/07 08:56:26;;;;;;;;;;;10.50;99.90;;;;;;5047840;28;19912;-75
2023/01/07 08:58:51;;;;;;;;;;;10.50;99.90;;;;;;5050646;28;20546;-73
2023/01/07 09:01:17;;;;;;;;;;;10.50;99.90;;;;;;5047044;28;20385;-73
2023/01/07 09:03:42;;;;;;;;;;;10.50;99.90;;;;;;5051189;28;19920;-73
2023/01/07 09:06:08;;;;;;;;;;;10.50;99.90;;;;;;5052167;28;19917;-73
2023/01/07 09:08:34;;;;;;;;;;;10.60;99.90;;;;;;5050429;28;19917;-73
2023/01/07 09:10:59;;;;;;;;;;;10.60;99.90;;;;;;5050554;28;19913;-73
2023/01/07 09:13:24;;;;;;;;;;;10.60;99.90;;;;;;5050061;28;19921;-74
2023/01/07 09:15:51;;;;;;;;;;;10.60;99.90;;;;;;5049952;28;19924;-76
2023/01/07 09:18:17;;;;;;;;;;;10.60;99.90;;;;;;5049632;28;19975;-73
2023/01/07 09:20:42;;;;;;;;;;;10.60;99.90;;;;;;5047232;28;20424;-72
2023/01/07 09:23:07;;;;;;;;;;;10.70;99.90;;;;;;5045677;28;19946;-73
2023/01/07 09:25:33;;;;;;;;;;;10.70;99.90;;;;;;5045837;28;19920;-74
2023/01/07 09:27:58;;;;;;;;;;;10.80;99.90;;;;;;5045742;28;20300;-75
2023/01/07 09:30:24;;;;;;;;;;;10.80;99.90;;;;;;5051393;28;19924;-74
2023/01/07 09:32:49;;;;;;;;;;;10.70;99.90;;;;;;5047943;28;19929;-73
2023/01/07 09:35:15;;;;;;;;;;;10.80;99.90;;;;;;5052355;28;20015;-75
2023/01/07 09:37:41;;;;;;;;;;;10.90;99.90;;;;;;5045296;28;20027;-73
2023/01/07 09:40:07;;;;;;;;;;;10.90;99.90;;;;;;5046030;28;19936;-74
2023/01/07 09:42:35;;;;;;;;;;;10.90;99.90;;;;;;5052019;28;19955;-76
2023/01/07 09:45:19;;;;;;;;;;;10.90;99.90;;;;;;5049979;28;19966;-73
2023/01/07 09:47:46;;;;;;;;;;;10.90;99.90;;;;;;5047989;28;19916;-73
2023/01/07 09:50:17;;;;;;;;;;;10.90;99.90;;;;;;5045193;28;20323;-75
2023/01/07 09:52:46;;;;;;;;;;;11.00;99.90;;;;;;5047202;28;19920;-75
2023/01/07 09:55:16;;;;;;;;;;;11.00;99.90;;;;;;5046516;28;19970;-72
2023/01/07 09:57:42;;;;;;;;;;;11.00;99.90;;;;;;5047035;28;19920;-74
2023/01/07 10:00:15;;;;;;;;;;;11.10;99.90;;;;;;5044671;28;19913;-75
2023/01/07 10:02:43;;;;;;;;;;;11.10;99.90;;;;;;5041540;28;19912;-74
2023/01/07 10:05:25;;;;;;;;;;;11.00;99.90;;;;;;5040821;28;19962;-74
2023/01/07 10:08:08;;;;;;;;;;;11.10;99.90;;;;;;5044900;28;19931;-75
2023/01/07 10:10:51;;;;;;;;;;;11.10;99.90;;;;;;5039055;28;19913;-75
2023/01/07 10:13:35;;;;;;;;;;;11.10;99.90;;;;;;5042145;28;19928;-73
2023/01/07 10:16:13;;;;;;;;;;;11.10;99.90;;;;;;5035235;28;19919;-73
2023/01/07 10:18:46;;;;;;;;;;;11.10;99.90;;;;;;5043447;28;20666;-74
2023/01/07 10:21:21;;;;;;;;;;;11.10;99.90;;;;;;5043453;28;20614;-74
2023/01/07 10:23:54;;;;;;;;;;;11.20;99.90;;;;;;5034579;28;20407;-74
2023/01/07 10:26:29;;;;;;;;;;;11.10;99.90;;;;;;5043064;28;20011;-74
2023/01/07 10:28:58;;;;;;;;;;;11.10;99.90;;;;;;5041318;28;19960;-75
2023/01/07 10:31:24;;;;;;;;;;;11.10;99.90;;;;;;5045554;28;19974;-75
2023/01/07 10:33:50;;;;;;;;;;;11.10;99.90;;;;;;5042490;28;20023;-74
2023/01/07 10:36:21;;;;;;;;;;;11.10;99.90;;;;;;5044748;28;20246;-74
2023/01/07 10:38:55;;;;;;;;;;;11.20;99.90;;;;;;5044384;28;20391;-74
2023/01/07 10:41:35;;;;;;;;;;;11.20;99.90;;;;;;5048350;28;19921;-74
2023/01/07 10:44:20;;;;;;;;;;;11.30;99.90;;;;;;5043178;28;19936;-73
2023/01/07 10:46:45;;;;;;;;;;;11.30;99.90;;;;;;5045824;28;19916;-77
2023/01/07 10:49:29;;;;;;;;;;;11.40;99.90;;;;;;5046222;28;19913;-74
2023/01/07 10:52:13;;;;;;;;;;;11.40;99.90;;;;;;5046827;28;20311;-74
2023/01/07 10:54:39;;;;;;;;;;;11.40;99.90;;;;;;5044706;28;19915;-72
2023/01/07 10:57:25;;;;;;;;;;;11.40;99.90;;;;;;5043927;28;19912;-72
2023/01/07 10:59:52;;;;;;;;;;;11.40;99.90;;;;;;5046622;28;19924;-73
2023/01/07 11:02:19;;;;;;;;;;;11.30;99.90;;;;;;5043509;28;20358;-75
2023/01/07 11:04:45;;;;;;;;;;;11.30;99.90;;;;;;5046589;28;20714;-74
2023/01/07 11:07:26;;;;;;;;;;;11.30;99.90;;;;;;5047684;28;19952;-73
2023/01/07 11:09:52;;;;;;;;;;;11.30;99.90;;;;;;5051324;28;20019;-74
2023/01/07 11:12:32;;;;;;;;;;;11.50;99.90;;;;;;5046543;28;20621;-75
2023/01/07 11:15:00;;;;;;;;;;;11.50;99.90;;;;;;5028863;28;19909;-75
2023/01/07 11:17:44;;;;;;;;;;;11.50;99.90;;;;;;5037148;28;19908;-75
2023/01/07 11:20:11;;;;;;;;;;;11.60;99.90;;;;;;5041239;28;19917;-74
2023/01/07 11:22:37;;;;;;;;;;;11.60;99.90;;;;;;5045833;28;19917;-73
2023/01/07 11:25:21;;;;;;;;;;;11.70;99.90;;;;;;5041726;28;19920;-74
2023/01/07 11:27:46;;;;;;;;;;;11.70;99.90;;;;;;5046882;28;19963;-75
2023/01/07 11:30:20;;;;;;;;;;;11.70;99.90;;;;;;5049866;28;19912;-72
2023/01/07 11:32:58;;;;;;;;;;;11.80;99.90;;;;;;5047516;28;19943;-71
2023/01/07 11:35:24;;;;;;;;;;;11.90;99.90;;;;;;5045707;28;19913;-74
2023/01/07 11:37:49;;;;;;;;;;;11.80;99.90;;;;;;5043330;28;19962;-76
2023/01/07 11:40:17;;;;;;;;;;;11.70;99.90;;;;;;5036394;28;20663;-76
2023/01/07 11:42:46;;;;;;;;;;;11.70;99.90;;;;;;5039735;28;19913;-75
2023/01/07 11:45:20;;;;;;;;;;;11.70;99.90;;;;;;5060554;28;19909;-74
2023/01/07 11:47:47;;;;;;;;;;;11.70;99.90;;;;;;5042530;28;19943;-74
2023/01/07 11:50:27;;;;;;;;;;;11.60;99.90;;;;;;5051740;28;19945;-75
2023/01/07 11:52:53;;;;;;;;;;;11.50;99.90;;;;;;5050349;28;19921;-74
2023/01/07 11:55:19;;;;;;;;;;;11.50;99.90;;;;;;5048254;28;20478;-75
2023/01/07 11:57:51;;;;;;;;;;;11.50;99.90;;;;;;5034398;28;19923;-76
2023/01/07 12:00:17;;;;;;;;;;;11.50;99.90;;;;;;5037714;28;19913;-76
2023/01/07 12:02:42;;;;;;;;;;;11.50;99.90;;;;;;5040611;28;19958;-74
2023/01/07 12:05:17;;;;;;;;;;;11.50;99.90;;;;;;5041933;28;19917;-75
2023/01/07 12:07:46;;;;;;;;;;;11.60;99.90;;;;;;5040725;28;19955;-75
2023/01/07 12:10:24;;;;;;;;;;;11.70;99.90;;;;;;5037884;28;19920;-75
2023/01/07 12:12:49;;;;;;;;;;;11.80;99.90;;;;;;5039408;28;19925;-76
2023/01/07 12:15:17;;;;;;;;;;;11.90;99.90;;;;;;5042390;28;19913;-73
2023/01/07 12:17:43;;;;;;;;;;;11.90;99.90;;;;;;5035384;28;20023;-76
2023/01/07 12:20:12;;;;;;;;;;;11.90;99.90;;;;;;5045023;28;20073;-74
2023/01/07 12:22:55;;;;;;;;;;;11.80;99.90;;;;;;5042154;28;19909;-75
2023/01/07 12:25:23;;;;;;;;;;;11.70;99.90;;;;;;5046319;28;19913;-74
2023/01/07 12:28:01;;;;;;;;;;;11.60;99.90;;;;;;5041437;28;20276;-74
2023/01/07 12:30:42;;;;;;;;;;;11.50;99.90;;;;;;5040004;28;19951;-76
2023/01/07 12:33:17;;;;;;;;;;;11.60;99.90;;;;;;5036497;28;19917;-77
2023/01/07 12:35:44;;;;;;;;;;;11.60;99.90;;;;;;5041785;28;19955;-75
2023/01/07 12:38:26;;;;;;;;;;;11.60;99.90;;;;;;5040675;28;19963;-74
2023/01/07 12:40:53;;;;;;;;;;;11.70;99.90;;;;;;5039940;28;20473;-74
2023/01/07 12:43:38;;;;;;;;;;;11.70;99.90;;;;;;5034393;28;19956;-74
2023/01/07 12:46:05;;;;;;;;;;;11.80;99.90;;;;;;5038139;28;20018;-74
2023/01/07 12:48:31;;;;;;;;;;;11.60;99.90;;;;;;5043278;28;19913;-74
2023/01/07 12:50:58;;;;;;;;;;;11.60;99.90;;;;;;5046704;28;19970;-74
2023/01/07 12:53:23;;;;;;;;;;;11.70;99.90;;;;;;5043558;28;19921;-75
2023/01/07 12:55:50;;;;;;;;;;;11.60;99.90;;;;;;5045302;28;19920;-75
2023/01/07 12:58:31;;;;;;;;;;;11.60;99.90;;;;;;5034281;28;19913;-76
2023/01/07 13:01:15;;;;;;;;;;;11.60;99.90;;;;;;5040794;28;19923;-78
2023/01/07 13:03:44;;;;;;;;;;;11.60;99.90;;;;;;5042252;28;20402;-75
2023/01/07 13:06:25;;;;;;;;;;;11.60;99.90;;;;;;5042460;28;19912;-74
2023/01/07 13:09:01;;;;;;;;;;;11.70;99.90;;;;;;5043974;28;19916;-77
2023/01/07 13:14:28;;;;;;;;;;;11.90;99.90;;;;;;5039530;28;19924;-75
2023/01/07 13:16:58;;;;;;;;;;;11.90;99.90;;;;;;5048671;28;19917;-76
2023/01/07 13:19:24;;;;;;;;;;;12.00;99.90;;;;;;5046076;28;20371;-77
2023/01/07 13:21:50;;;;;;;;;;;12.00;99.90;;;;;;5050679;28;19917;-78
2023/01/07 13:24:35;;;;;;;;;;;12.00;99.90;;;;;;5030436;28;19936;-76
2023/01/07 13:27:18;;;;;;;;;;;11.80;99.90;;;;;;5042894;28;19914;-75
2023/01/07 13:30:04;;;;;;;;;;;11.80;99.90;;;;;;5034542;28;19910;-77
2023/01/07 13:32:45;;;;;;;;;;;11.80;99.90;;;;;;5045368;28;20488;-76
2023/01/07 13:35:17;;;;;;;;;;;11.90;99.90;;;;;;5031927;28;20322;-77
2023/01/07 13:38:00;;;;;;;;;;;11.90;99.90;;;;;;5038432;28;19916;-76
2023/01/07 13:40:35;;;;;;;;;;;11.90;99.90;;;;;;5040299;28;19917;-75
2023/01/07 13:43:16;;;;;;;;;;;11.90;99.90;;;;;;5035274;28;19948;-76
2023/01/07 13:45:47;;;;;;;;;;;11.80;99.90;;;;;;5038388;28;20011;-74
2023/01/07 13:48:19;;;;;;;;;;;11.70;99.90;;;;;;5043579;28;19916;-75
2023/01/07 13:50:54;;;;;;;;;;;11.70;99.90;;;;;;5039199;28;19913;-74
2023/01/07 13:53:20;;;;;;;;;;;11.70;99.90;;;;;;5035363;28;19967;-76
2023/01/07 13:55:46;;;;;;;;;;;11.70;99.90;;;;;;5041019;28;19944;-74
2023/01/07 13:58:30;;;;;;;;;;;11.70;99.90;;;;;;5043687;28;19913;-75
2023/01/07 14:01:01;;;;;;;;;;;11.70;99.90;;;;;;5039484;28;19923;-75
2023/01/07 14:03:26;;;;;;;;;;;11.60;99.90;;;;;;5044874;28;19924;-75
2023/01/07 14:06:11;;;;;;;;;;;11.60;99.90;;;;;;5044614;28;19908;-72
2023/01/07 14:08:36;;;;;;;;;;;11.60;99.90;;;;;;5036853;28;20090;-73
2023/01/07 14:11:03;;;;;;;;;;;11.60;99.90;;;;;;5042789;28;20390;-75
2023/01/07 14:13:34;;;;;;;;;;;11.60;99.90;;;;;;5038143;28;19913;-73
2023/01/07 14:16:04;;;;;;;;;;;11.60;99.90;;;;;;5035382;28;19909;-72
2023/01/07 14:18:32;;;;;;;;;;;11.60;99.90;;;;;;5036807;28;19979;-73
2023/01/07 14:21:27;;;;;;;;;;;11.60;99.90;;;;;;5038640;28;20030;-74
2023/01/07 14:24:11;;;;;;;;;;;11.60;99.90;;;;;;5025304;28;19909;-74
2023/01/07 14:26:45;;;;;;;;;;;11.60;99.90;;;;;;5041918;28;19913;-74
2023/01/07 14:29:18;;;;;;;;;;;11.70;99.90;;;;;;5044488;28;19908;-74